Time;durP1;ratioP1;P1;durP2;ratioP2;P2;SDS_P1;SDS_P2;PMS_P1;PMS_P2;Temp;Humidity;BMP_temperature;BMP_pressure;BME280_temperature;BME280_humidity;BME280_pressure;Samples;Min_cycle;Max_cycle;Signal;HPM_P1;HPM_P2
2021/06/15 00:00:25;;;;;;;6.12;5.05;;;;;;;19.12;100.00;100431.78;1719343;82;21491;-41
2021/06/15 00:02:52;;;;;;;5.37;4.87;;;;;;;19.10;100.00;100426.55;1717346;83;20949;-38
2021/06/15 00:05:18;;;;;;;6.92;5.17;;;;;;;19.09;100.00;100434.28;1716290;83;20996;-38
2021/06/15 00:07:45;;;;;;;5.80;5.22;;;;;;;19.11;100.00;100436.85;1712517;82;20975;-39
2021/06/15 00:10:23;;;;;;;7.70;6.45;;;;;;;19.09;100.00;100432.93;1719565;83;21432;-40
2021/06/15 00:12:51;;;;;;;6.08;5.00;;;;;;;19.06;100.00;100433.73;1716610;82;21011;-42
2021/06/15 00:15:18;;;;;;;8.65;5.92;;;;;;;19.00;100.00;100431.97;1716918;83;20952;-41
2021/06/15 00:17:45;;;;;;;8.88;5.85;;;;;;;18.99;100.00;100426.20;1715105;82;21398;-42
2021/06/15 00:20:14;;;;;;;6.70;5.55;;;;;;;18.97;100.00;100430.03;1716306;82;21424;-41
2021/06/15 00:22:41;;;;;;;12.80;5.42;;;;;;;18.95;100.00;100429.33;1714740;82;20969;-44
2021/06/15 00:25:09;;;;;;;5.87;5.28;;;;;;;18.89;100.00;100422.66;1717043;83;21464;-41
2021/06/15 00:27:37;;;;;;;6.20;5.60;;;;;;;18.89;100.00;100421.31;1713983;82;21491;-43
2021/06/15 00:30:08;;;;;;;5.42;4.92;;;;;;;18.86;100.00;100422.95;1717098;82;20988;-42
2021/06/15 00:32:35;;;;;;;10.63;6.22;;;;;;;18.76;100.00;100422.12;1716708;82;20964;-41
2021/06/15 00:35:03;;;;;;;6.97;5.45;;;;;;;18.72;100.00;100426.06;1718725;82;20992;-42
2021/06/15 00:37:29;;;;;;;6.10;5.50;;;;;;;18.68;100.00;100421.45;1719227;82;21570;-40
2021/06/15 00:39:56;;;;;;;7.78;5.37;;;;;;;18.64;100.00;100422.73;1716365;83;21019;-42
2021/06/15 00:42:23;;;;;;;6.10;5.53;;;;;;;18.57;100.00;100418.89;1717831;82;20960;-42
2021/06/15 00:44:52;;;;;;;12.58;6.35;;;;;;;18.51;100.00;100416.27;1717173;82;20949;-40
2021/06/15 00:47:18;;;;;;;8.73;5.70;;;;;;;18.49;100.00;100421.45;1719140;82;20992;-44
2021/06/15 00:49:45;;;;;;;6.15;5.30;;;;;;;18.51;100.00;100423.52;1718797;82;20909;-40
2021/06/15 00:52:11;;;;;;;6.37;5.33;;;;;;;18.53;100.00;100425.59;1728947;80;20983;-39
2021/06/15 00:54:38;;;;;;;7.97;5.10;;;;;;;18.56;100.00;100425.30;1748828;80;21471;-38
2021/06/15 00:57:05;;;;;;;10.20;7.15;;;;;;;18.60;100.00;100420.83;1749942;80;20937;-41
2021/06/15 00:59:32;;;;;;;7.72;5.10;;;;;;;18.64;100.00;100420.53;1751260;80;20960;-43
2021/06/15 01:01:58;;;;;;;10.50;6.08;;;;;;;18.64;100.00;100417.83;1749465;81;20944;-41
2021/06/15 01:04:25;;;;;;;6.53;5.45;;;;;;;18.63;100.00;100421.54;1749894;80;20975;-41
2021/06/15 01:06:58;;;;;;;8.68;5.72;;;;;;;18.57;100.00;100414.37;1749776;80;20960;-40
2021/06/15 01:10:05;;;;;;;7.20;6.40;;;;;;;18.55;100.00;100415.00;1750631;80;21373;-43
2021/06/15 01:12:50;;;;;;;15.72;6.45;;;;;;;18.52;100.00;100414.41;1726427;81;20996;-39
2021/06/15 01:15:35;;;;;;;9.18;6.42;;;;;;;18.48;100.00;100415.20;1722207;81;20963;-40
2021/06/15 01:18:10;;;;;;;5.78;4.70;;;;;;;18.43;100.00;100414.78;1713193;81;20991;-40
2021/06/15 01:20:44;;;;;;;5.70;5.17;;;;;;;18.42;100.00;100414.91;1697057;83;20991;-39
2021/06/15 01:23:25;;;;;;;11.55;5.15;;;;;;;18.44;100.00;100415.12;1722391;82;21458;-45
2021/06/15 01:26:11;;;;;;;8.05;5.40;;;;;;;18.48;100.00;100417.06;1724096;81;20923;-39
2021/06/15 01:28:59;;;;;;;5.58;5.08;;;;;;;18.52;100.00;100416.64;1725734;81;20943;-38
2021/06/15 01:31:39;;;;;;;6.05;5.05;;;;;;;18.56;100.00;100414.50;1701758;81;20956;-40
2021/06/15 01:34:09;;;;;;;9.45;5.58;;;;;;;18.59;100.00;100416.91;1727234;81;21491;-39
2021/06/15 01:36:40;;;;;;;9.83;5.67;;;;;;;18.62;100.00;100420.66;1726968;81;21088;-40
2021/06/15 01:39:14;;;;;;;6.65;4.70;;;;;;;18.63;100.00;100425.09;1726486;81;20971;-40
2021/06/15 01:41:46;;;;;;;5.62;5.05;;;;;;;18.64;100.00;100424.58;1726967;81;21023;-39
2021/06/15 01:44:13;;;;;;;6.05;5.22;;;;;;;18.66;100.00;100428.00;1724946;81;20983;-40
2021/06/15 01:46:54;;;;;;;7.33;4.85;;;;;;;18.67;100.00;100423.81;1724589;81;21025;-44
2021/06/15 01:49:21;;;;;;;5.28;4.78;;;;;;;18.68;100.00;100427.36;1729765;80;21012;-39
2021/06/15 01:51:48;;;;;;;6.25;5.20;;;;;;;18.70;100.00;100430.78;1749026;80;20940;-39
2021/06/15 01:54:22;;;;;;;6.95;5.75;;;;;;;18.70;100.00;100434.32;1749898;80;20976;-43
2021/06/15 01:56:51;;;;;;;6.50;5.15;;;;;;;18.71;100.00;100431.12;1748741;80;20968;-42
2021/06/15 01:59:19;;;;;;;5.72;4.95;;;;;;;18.70;100.00;100433.48;1748332;80;21839;-41
2021/06/15 02:01:56;;;;;;;6.35;5.30;;;;;;;18.69;100.00;100435.30;1718965;82;20944;-42
2021/06/15 02:04:25;;;;;;;7.45;5.20;;;;;;;18.66;100.00;100434.75;1749177;81;21035;-39
2021/06/15 02:06:53;;;;;;;6.72;5.37;;;;;;;18.63;100.00;100439.94;1749793;80;21015;-40
2021/06/15 02:09:22;;;;;;;6.12;5.53;;;;;;;18.56;100.00;100435.59;1722610;82;20991;-39
2021/06/15 02:12:07;;;;;;;6.40;5.10;;;;;;;18.52;100.00;100437.36;1748784;80;20967;-42
2021/06/15 02:14:48;;;;;;;6.87;5.60;;;;;;;18.45;100.00;100438.45;1639457;86;20968;-41
2021/06/15 02:17:16;;;;;;;7.12;5.95;;;;;;;18.37;100.00;100440.50;1647949;84;21007;-39
2021/06/15 02:19:48;;;;;;;5.72;5.22;;;;;;;18.33;100.00;100441.77;1635314;86;21354;-39
2021/06/15 02:22:17;;;;;;;6.50;5.90;;;;;;;18.33;100.00;100440.42;1635446;86;21057;-39
2021/06/15 02:24:53;;;;;;;6.78;5.50;;;;;;;18.35;100.00;100442.48;1636519;86;21523;-39
2021/06/15 02:27:21;;;;;;;12.78;6.20;;;;;;;18.33;100.00;100443.11;1641192;86;21009;-39
2021/06/15 02:29:53;;;;;;;8.15;6.25;;;;;;;18.33;100.00;100441.77;1629794;86;20994;-38
2021/06/15 02:32:30;;;;;;;6.08;5.28;;;;;;;18.33;100.00;100449.02;1592840;86;21032;-38
2021/06/15 02:34:57;;;;;;;7.45;6.05;;;;;;;18.32;100.00;100448.64;1643062;86;20974;-38
2021/06/15 02:37:28;;;;;;;6.08;5.58;;;;;;;18.33;100.00;100451.22;1602563;87;21591;-39
2021/06/15 02:39:57;;;;;;;6.03;5.53;;;;;;;18.33;100.00;100445.81;1606520;88;20991;-38
2021/06/15 02:42:24;;;;;;;6.72;6.03;;;;;;;18.34;100.00;100452.06;1605762;87;21031;-37
2021/06/15 02:44:54;;;;;;;7.22;6.53;;;;;;;18.35;100.00;100454.63;1581564;87;21524;-39
2021/06/15 02:47:21;;;;;;;5.87;5.37;;;;;;;18.34;100.00;100449.36;1627755;86;20991;-39
2021/06/15 02:49:51;;;;;;;7.40;6.05;;;;;;;18.36;100.00;100454.13;1630119;83;21045;-38
2021/06/15 02:52:35;;;;;;;8.45;6.55;;;;;;;18.37;100.00;100456.70;1747805;80;20969;-39
2021/06/15 02:55:10;;;;;;;6.42;5.83;;;;;;;18.38;100.00;100448.95;1715052;81;21043;-42
2021/06/15 02:57:37;;;;;;;6.87;6.15;;;;;;;18.42;100.00;100450.00;1743935;81;21039;-42
2021/06/15 03:00:07;;;;;;;7.87;6.33;;;;;;;18.42;100.00;100450.88;1727134;81;20964;-40
2021/06/15 03:02:34;;;;;;;6.78;6.03;;;;;;;18.45;100.00;100452.45;1741594;80;20929;-42
2021/06/15 03:05:09;;;;;;;6.25;5.47;;;;;;;18.48;100.00;100453.00;1720995;82;20960;-41
2021/06/15 03:07:36;;;;;;;6.42;5.75;;;;;;;18.51;100.00;100454.06;1722265;82;21023;-41
2021/06/15 03:10:05;;;;;;;7.83;6.25;;;;;;;18.53;100.00;100456.13;1739944;80;21024;-41
2021/06/15 03:12:37;;;;;;;5.80;5.20;;;;;;;18.57;100.00;100453.52;1717777;81;21297;-41
2021/06/15 03:15:08;;;;;;;6.72;6.03;;;;;;;18.62;100.00;100456.27;1707593;83;20952;-41
2021/06/15 03:17:44;;;;;;;9.03;5.55;;;;;;;18.67;100.00;100451.29;1589038;86;21023;-41
2021/06/15 03:20:11;;;;;;;6.30;5.70;;;;;;;18.71;100.00;100450.87;1680546;84;20977;-39
2021/06/15 03:23:08;;;;;;;8.50;6.70;;;;;;;18.76;100.00;100451.33;1617089;87;21502;-39
2021/06/15 03:25:35;;;;;;;9.45;6.87;;;;;;;18.81;100.00;100448.20;1671704;83;21538;-39
2021/06/15 03:28:26;;;;;;;6.53;5.87;;;;;;;18.85;100.00;100452.80;1635804;85;21015;-39
2021/06/15 03:30:54;;;;;;;6.17;5.57;;;;;;;18.87;100.00;100454.36;1612459;87;21027;-41
2021/06/15 03:33:21;;;;;;;7.62;5.35;;;;;;;18.90;100.00;100450.05;1615231;87;21039;-40
2021/06/15 03:35:55;;;;;;;5.92;5.42;;;;;;;18.95;100.00;100453.16;1613103;87;21007;-42
2021/06/15 03:38:28;;;;;;;6.28;5.70;;;;;;;19.01;100.00;100453.08;1614013;87;21090;-40
2021/06/15 03:40:57;;;;;;;6.12;5.62;;;;;;;19.07;100.00;100452.48;1612641;87;21055;-40
2021/06/15 03:43:23;;;;;;;5.83;5.33;;;;;;;19.14;100.00;100447.36;1647974;85;21036;-40
2021/06/15 03:46:06;;;;;;;6.50;5.62;;;;;;;19.20;100.00;100447.64;1647275;85;21516;-41
2021/06/15 03:48:33;;;;;;;6.15;5.55;;;;;;;19.29;100.00;100449.11;1649762;85;21920;-39
2021/06/15 03:51:00;;;;;;;7.35;5.92;;;;;;;19.35;100.00;100448.50;1644121;86;21000;-40
2021/06/15 03:53:32;;;;;;;6.05;5.47;;;;;;;19.42;100.00;100440.16;1647606;85;21521;-38
2021/06/15 03:56:00;;;;;;;6.45;5.83;;;;;;;19.48;100.00;100444.99;1642280;85;21044;-39
2021/06/15 03:58:27;;;;;;;6.00;5.40;;;;;;;19.53;100.00;100441.34;1652549;85;21065;-39
2021/06/15 04:00:54;;;;;;;6.05;5.40;;;;;;;19.60;100.00;100445.12;1641665;85;21039;-45
2021/06/15 04:03:21;;;;;;;6.45;5.85;;;;;;;19.65;100.00;100448.27;1600468;86;20977;-38
2021/06/15 04:05:47;;;;;;;7.85;5.22;;;;;;;19.71;100.00;100448.70;1740081;80;21525;-39
2021/06/15 04:08:19;;;;;;;6.35;5.75;;;;;;;19.75;100.00;100450.09;1757654;81;20924;-40
2021/06/15 04:10:49;;;;;;;5.47;4.97;;;;;;;19.79;100.00;100451.51;1749451;81;21446;-39
2021/06/15 04:13:15;;;;;;;6.45;5.03;;;;;;;19.84;100.00;100450.55;1749275;80;20924;-38
2021/06/15 04:15:44;;;;;;;5.25;4.75;;;;;;;19.88;100.00;100452.81;1746437;80;20989;-38
2021/06/15 04:18:13;;;;;;;5.92;4.75;;;;;;;19.94;100.00;100452.70;1757736;81;20943;-38
2021/06/15 04:20:40;;;;;;;5.80;5.30;;;;;;;19.99;100.00;100454.97;1713889;81;21468;-39
2021/06/15 04:23:08;;;;;;;5.47;5.03;;;;;;;20.03;100.00;100446.87;1749320;81;20932;-41
2021/06/15 04:25:39;;;;;;;6.10;5.22;;;;;;;20.07;100.00;100454.54;1719665;81;21470;-41
2021/06/15 04:28:06;;;;;;;;;;;;;;;20.12;100.00;100449.19;1753886;81;20943;-40
2021/06/15 04:30:34;;;;;;;7.45;5.55;;;;;;;20.17;100.00;100440.11;1748273;81;20102;-38
2021/06/15 04:33:03;;;;;;;6.20;5.67;;;;;;;20.19;100.00;100441.66;1751903;80;20991;-39
2021/06/15 04:35:39;;;;;;;6.22;5.28;;;;;;;20.25;100.00;100442.89;1751743;80;21132;-40
2021/06/15 04:38:12;;;;;;;5.45;4.97;;;;;;;20.29;100.00;100443.80;1750056;80;20955;-40
2021/06/15 04:40:45;;;;;;;5.83;5.22;;;;;;;20.35;100.00;100444.18;1689939;83;20968;-41
2021/06/15 04:43:36;;;;;;;5.78;4.92;;;;;;;20.40;100.00;100441.86;1751205;80;20908;-41
2021/06/15 04:46:22;;;;;;;5.28;4.78;;;;;;;20.45;99.62;100443.09;1755800;81;21000;-39
2021/06/15 04:48:57;;;;;;;4.62;4.22;;;;;;;20.52;99.24;100445.53;1757420;80;21382;-46
2021/06/15 04:51:24;;;;;;;4.22;3.80;;;;;;;20.59;96.44;100447.16;1751011;80;21905;-40
2021/06/15 04:53:50;;;;;;;6.12;5.40;;;;;;;20.62;94.13;100442.78;1740911;80;20956;-42
2021/06/15 04:56:17;;;;;;;5.10;4.53;;;;;;;20.66;92.79;100438.77;1695919;82;21044;-43
2021/06/15 04:58:45;;;;;;;5.40;4.40;;;;;;;20.70;92.77;100435.23;1704065;83;20924;-39
2021/06/15 05:01:13;;;;;;;5.08;4.62;;;;;;;20.74;91.97;100438.83;1711040;82;21796;-40
2021/06/15 05:03:40;;;;;;;4.35;3.80;;;;;;;20.77;90.06;100432.76;1700263;82;21448;-40
2021/06/15 05:06:07;;;;;;;4.62;4.17;;;;;;;20.81;90.89;100432.77;1717330;82;20951;-40
2021/06/15 05:08:47;;;;;;;5.03;4.28;;;;;;;20.85;90.82;100433.66;1712132;82;20944;-40
2021/06/15 05:11:14;;;;;;;5.00;4.55;;;;;;;20.90;89.77;100436.75;1698073;83;20969;-40
2021/06/15 05:13:41;;;;;;;5.45;4.47;;;;;;;20.96;88.80;100437.97;1716852;82;20957;-40
2021/06/15 05:16:09;;;;;;;4.78;4.33;;;;;;;21.01;88.42;100435.63;1713914;83;21000;-42
2021/06/15 05:18:37;;;;;;;5.00;4.22;;;;;;;21.07;88.34;100446.37;1713208;82;21011;-42
2021/06/15 05:21:23;;;;;;;6.00;4.08;;;;;;;21.09;87.39;100441.61;1715357;82;20948;-44
2021/06/15 05:24:03;;;;;;;4.92;4.53;;;;;;;21.14;88.07;100441.98;1717732;82;21004;-42
2021/06/15 05:26:30;;;;;;;5.05;4.60;;;;;;;21.18;87.40;100443.38;1716952;82;21771;-44
2021/06/15 05:28:57;;;;;;;5.35;4.58;;;;;;;21.25;87.43;100444.96;1690942;83;21268;-44
2021/06/15 05:31:23;;;;;;;4.45;4.05;;;;;;;21.29;88.12;100444.48;1714361;83;21020;-46
2021/06/15 05:33:50;;;;;;;4.83;4.30;;;;;;;21.35;89.56;100451.13;1713417;82;21000;-40
2021/06/15 05:36:16;;;;;;;5.12;4.30;;;;;;;21.42;89.61;100443.20;1710764;82;20954;-44
2021/06/15 05:38:43;;;;;;;6.83;5.00;;;;;;;21.47;88.80;100442.22;1715528;82;20941;-42
2021/06/15 05:41:09;;;;;;;5.62;5.12;;;;;;;21.51;87.65;100445.81;1714994;82;20992;-40
2021/06/15 05:43:36;;;;;;;4.97;4.45;;;;;;;21.54;87.85;100435.98;1721546;82;20968;-43
2021/06/15 05:46:02;;;;;;;5.10;4.70;;;;;;;21.61;88.49;100440.27;1713998;83;20977;-41
2021/06/15 05:48:29;;;;;;;7.80;4.97;;;;;;;21.65;87.30;100432.67;1711607;82;21016;-42
2021/06/15 05:50:56;;;;;;;7.22;5.28;;;;;;;21.71;88.04;100438.79;1711264;82;20977;-42
2021/06/15 05:53:23;;;;;;;4.83;4.40;;;;;;;21.76;88.99;100442.70;1717153;81;20968;-44
2021/06/15 05:55:49;;;;;;;5.12;4.62;;;;;;;21.82;90.62;100442.07;1742182;81;20952;-43
2021/06/15 05:58:16;;;;;;;4.08;3.67;;;;;;;21.91;89.78;100446.17;1740867;80;20991;-41
2021/06/15 06:00:43;;;;;;;4.62;3.98;;;;;;;21.95;85.82;100440.77;1738547;81;21845;-41
2021/06/15 06:03:10;;;;;;;5.62;3.47;;;;;;;22.02;86.18;100444.49;1737160;81;20996;-42
2021/06/15 06:08:24;;;;;;;4.83;4.05;;;;;;;22.13;84.27;100444.72;1741635;80;20941;-43
2021/06/15 06:10:52;;;;;;;8.50;3.85;;;;;;;22.19;84.69;100439.48;1739268;81;21019;-43
2021/06/15 06:13:19;;;;;;;7.10;5.30;;;;;;;22.25;84.34;100441.55;1735026;81;20996;-46
2021/06/15 06:15:46;;;;;;;6.42;3.95;;;;;;;22.33;81.37;100435.28;1735813;80;21503;-46
2021/06/15 06:18:13;;;;;;;3.52;3.20;;;;;;;22.40;82.03;100434.09;1741964;80;20975;-43
2021/06/15 06:20:40;;;;;;;3.50;3.20;;;;;;;22.43;79.02;100427.83;1741498;81;20949;-42
2021/06/15 06:23:07;;;;;;;4.20;3.42;;;;;;;22.49;79.97;100426.30;1734817;81;20991;-43
2021/06/15 06:25:35;;;;;;;4.80;3.55;;;;;;;22.53;79.60;100427.67;1737164;81;20938;-43
2021/06/15 06:28:04;;;;;;;3.95;2.77;;;;;;;22.60;79.08;100428.70;1734421;81;20983;-42
2021/06/15 06:30:32;;;;;;;5.80;3.65;;;;;;;22.65;77.58;100426.81;1733376;81;20949;-42
2021/06/15 06:32:58;;;;;;;5.37;3.35;;;;;;;22.70;79.45;100429.87;1734989;80;20924;-42
2021/06/15 06:35:29;;;;;;;5.95;3.52;;;;;;;22.76;79.31;100422.93;1736489;80;20970;-41
2021/06/15 06:38:05;;;;;;;3.22;2.92;;;;;;;22.81;79.64;100422.75;1743162;81;20921;-43
2021/06/15 06:40:35;;;;;;;3.30;3.00;;;;;;;22.88;79.55;100422.89;1739477;80;21009;-43
2021/06/15 06:43:02;;;;;;;4.20;3.00;;;;;;;22.94;77.90;100420.87;1740394;80;21240;-49
2021/06/15 06:45:29;;;;;;;4.03;2.67;;;;;;;22.99;77.75;100419.87;1736165;81;20963;-46
2021/06/15 06:47:56;;;;;;;3.92;2.98;;;;;;;23.05;76.56;100421.05;1738415;80;20971;-45
2021/06/15 06:50:23;;;;;;;5.00;3.33;;;;;;;23.09;75.94;100415.62;1737867;81;21829;-45
2021/06/15 06:52:49;;;;;;;3.95;3.02;;;;;;;23.15;77.59;100410.83;1738274;80;20975;-44
2021/06/15 06:55:21;;;;;;;3.90;2.98;;;;;;;23.25;78.34;100411.48;1719135;82;20969;-44
2021/06/15 06:57:46;;;;;;;4.25;3.30;;;;;;;23.32;77.95;100404.34;1715110;82;20940;-44
2021/06/15 07:00:14;;;;;;;4.15;3.35;;;;;;;23.38;77.44;100397.34;1717486;83;20939;-42
2021/06/15 07:02:41;;;;;;;4.95;2.95;;;;;;;23.43;77.16;100397.66;1716882;82;20988;-42
2021/06/15 07:05:09;;;;;;;4.90;3.12;;;;;;;23.50;78.07;100397.82;1710175;83;20952;-44
2021/06/15 07:07:35;;;;;;;5.78;2.70;;;;;;;23.55;79.84;100398.98;1680295;84;20964;-41
2021/06/15 07:10:02;;;;;;;3.70;3.12;;;;;;;23.63;79.10;100397.25;1654324;86;21044;-41
2021/06/15 07:12:31;;;;;;;4.15;3.30;;;;;;;23.70;78.90;100402.33;1656225;86;21009;-40
2021/06/15 07:15:09;;;;;;;;;;;;;;;23.77;76.41;100402.00;1663941;86;21000;-42
2021/06/15 07:17:58;;;;;;;3.17;2.67;;;;;;;23.84;74.45;100397.55;1512984;93;20205;-41
2021/06/15 07:20:24;;;;;;;3.02;2.67;;;;;;;23.94;72.20;100390.00;1529396;92;21028;-42
2021/06/15 07:22:51;;;;;;;3.75;2.70;;;;;;;24.02;71.50;100393.70;1524990;92;21035;-43
2021/06/15 07:25:17;;;;;;;5.35;3.08;;;;;;;24.08;71.16;100393.81;1552846;90;21516;-40
2021/06/15 07:27:44;;;;;;;3.05;2.62;;;;;;;24.13;71.05;100391.92;1556195;90;21032;-39
2021/06/15 07:30:12;;;;;;;3.40;3.10;;;;;;;24.19;68.29;100393.91;1554657;90;21073;-43
2021/06/15 07:32:38;;;;;;;3.77;2.67;;;;;;;24.25;68.50;100393.73;1555352;90;21057;-43
2021/06/15 07:35:06;;;;;;;6.35;3.12;;;;;;;24.29;68.68;100391.83;1556514;90;21106;-43
2021/06/15 07:37:32;;;;;;;4.85;3.00;;;;;;;24.35;69.94;100392.97;1554543;91;20960;-45
2021/06/15 07:39:59;;;;;;;3.33;3.02;;;;;;;24.41;70.41;100390.34;1555904;90;21068;-46
2021/06/15 07:42:29;;;;;;;5.45;3.17;;;;;;;24.46;68.30;100391.72;1555062;90;21017;-47
2021/06/15 07:44:55;;;;;;;7.95;4.42;;;;;;;24.50;70.53;100392.55;1509561;94;21034;-42
2021/06/15 07:47:22;;;;;;;5.78;4.10;;;;;;;24.58;70.95;100386.17;1554964;90;20996;-47
2021/06/15 07:49:49;;;;;;;5.80;3.47;;;;;;;24.62;70.16;100377.98;1552776;90;21582;-42
2021/06/15 07:52:15;;;;;;;9.68;3.92;;;;;;;24.67;69.62;100375.55;1554815;90;20961;-44
2021/06/15 07:54:42;;;;;;;4.08;3.00;;;;;;;24.74;71.01;100374.28;1606104;81;21028;-43
2021/06/15 07:57:09;;;;;;;4.42;3.62;;;;;;;24.78;69.66;100375.61;1752538;80;20956;-41
2021/06/15 07:59:36;;;;;;;5.22;4.08;;;;;;;24.83;70.37;100372.66;1751182;80;21617;-42
2021/06/15 08:02:03;;;;;;;5.03;3.35;;;;;;;24.90;71.46;100377.38;1737589;80;20977;-43
2021/06/15 08:04:30;;;;;;;4.45;3.40;;;;;;;24.97;71.11;100380.55;1741295;80;21044;-42
2021/06/15 08:06:56;;;;;;;5.90;3.15;;;;;;;25.02;68.89;100375.87;1746255;80;20959;-43
2021/06/15 08:09:23;;;;;;;3.58;3.20;;;;;;;25.08;68.18;100377.03;1749889;80;21018;-40
2021/06/15 08:11:50;;;;;;;5.95;3.00;;;;;;;25.12;65.12;100368.78;1751145;80;20995;-42
2021/06/15 08:14:17;;;;;;;2.80;2.60;;;;;;;25.17;65.81;100372.66;1746924;80;21482;-40
2021/06/15 08:16:44;;;;;;;3.52;3.22;;;;;;;25.20;61.64;100364.13;1744128;80;21010;-42
2021/06/15 08:19:10;;;;;;;3.12;2.83;;;;;;;25.24;62.34;100359.97;1746804;80;20959;-38
2021/06/15 08:21:37;;;;;;;3.83;3.12;;;;;;;25.27;62.66;100364.20;1745465;80;21003;-43
2021/06/15 08:24:37;;;;;;;4.95;3.72;;;;;;;25.31;63.70;100361.97;1745530;80;20940;-42
2021/06/15 08:27:16;;;;;;;3.50;2.75;;;;;;;25.36;65.54;100362.25;1602120;88;21079;-41
2021/06/15 08:29:42;;;;;;;4.45;3.65;;;;;;;25.42;65.58;100360.11;1602246;88;21004;-42
2021/06/15 08:32:09;;;;;;;3.65;3.35;;;;;;;25.46;64.19;100362.80;1604482;88;21042;-40
2021/06/15 08:34:37;;;;;;;4.08;3.67;;;;;;;25.52;65.49;100363.92;1601134;88;21010;-40
2021/06/15 08:37:04;;;;;;;3.20;2.90;;;;;;;25.56;63.49;100367.45;1590020;89;21526;-42
2021/06/15 08:39:31;;;;;;;5.17;3.30;;;;;;;25.59;63.17;100359.39;1591393;88;21018;-42
2021/06/15 08:41:58;;;;;;;3.52;3.22;;;;;;;25.63;64.64;100356.63;1587012;89;20993;-43
2021/06/15 08:44:25;;;;;;;4.97;3.05;;;;;;;25.68;64.71;100357.73;1589614;89;21617;-40
2021/06/15 08:47:01;;;;;;;4.65;2.72;;;;;;;25.75;64.17;100356.95;1578134;88;21029;-41
2021/06/15 08:49:30;;;;;;;4.10;3.55;;;;;;;25.80;64.15;100362.69;1570475;90;21654;-41
2021/06/15 08:51:58;;;;;;;3.67;3.27;;;;;;;25.85;61.51;100352.06;1569371;90;21045;-41
2021/06/15 08:54:25;;;;;;;3.25;2.95;;;;;;;25.92;64.07;100354.88;1566767;90;21532;-41
2021/06/15 08:56:52;;;;;;;4.85;4.17;;;;;;;25.98;64.94;100355.47;1568155;90;21063;-41
2021/06/15 08:59:29;;;;;;;3.40;2.90;;;;;;;26.02;63.60;100348.59;1546494;90;21098;-41
2021/06/15 09:01:57;;;;;;;3.02;2.72;;;;;;;26.06;63.47;100348.02;1564241;90;21412;-41
2021/06/15 09:04:24;;;;;;;4.37;2.77;;;;;;;26.11;64.34;100341.97;1630712;83;20975;-42
2021/06/15 09:06:53;;;;;;;3.10;2.75;;;;;;;26.17;64.92;100343.07;1693891;83;21023;-41
2021/06/15 09:09:20;;;;;;;5.40;3.47;;;;;;;26.24;63.82;100339.36;1705096;83;21001;-41
2021/06/15 09:11:55;;;;;;;3.90;2.87;;;;;;;26.29;64.03;100336.89;1686948;83;20995;-41
2021/06/15 09:14:45;;;;;;;3.90;3.05;;;;;;;26.34;62.05;100326.22;1692440;83;20988;-41
2021/06/15 09:17:18;;;;;;;3.08;2.77;;;;;;;26.39;61.10;100328.36;1724345;82;21024;-43
2021/06/15 09:19:44;;;;;;;2.83;2.55;;;;;;;26.43;61.70;100329.64;1707706;83;20988;-42
2021/06/15 09:22:29;;;;;;;3.90;2.58;;;;;;;26.48;63.42;100324.42;1707951;82;21000;-42
2021/06/15 09:24:56;;;;;;;3.40;3.10;;;;;;;26.53;62.63;100327.48;1705376;82;20971;-42
2021/06/15 09:27:37;;;;;;;4.45;3.75;;;;;;;26.59;58.94;100317.63;1709534;82;20987;-44
2021/06/15 09:30:12;;;;;;;3.40;2.47;;;;;;;26.62;60.88;100326.80;1706837;82;21345;-42
2021/06/15 09:32:41;;;;;;;6.08;2.67;;;;;;;26.67;60.38;100322.94;1707152;82;20983;-42
2021/06/15 09:35:12;;;;;;;2.87;2.47;;;;;;;26.72;58.68;100320.98;1706881;82;20982;-42
2021/06/15 09:37:46;;;;;;;3.45;2.80;;;;;;;26.74;60.51;100322.48;1705694;82;21007;-43
2021/06/15 09:40:21;;;;;;;3.80;3.40;;;;;;;26.76;60.96;100314.05;1697610;83;21454;-42
2021/06/15 09:43:04;;;;;;;4.05;2.70;;;;;;;26.80;61.93;100316.73;1677503;83;21043;-41
2021/06/15 09:45:46;;;;;;;5.17;2.87;;;;;;;26.85;60.99;100311.50;1699855;83;21458;-42
2021/06/15 09:48:32;;;;;;;3.15;2.83;;;;;;;26.88;58.20;100306.16;1714877;82;21048;-41
2021/06/15 09:51:05;;;;;;;2.92;2.30;;;;;;;26.90;59.78;100306.27;1712006;83;20968;-44
2021/06/15 09:53:35;;;;;;;3.20;2.50;;;;;;;26.93;56.80;100309.97;1708395;83;20985;-43
2021/06/15 09:56:05;;;;;;;4.37;2.95;;;;;;;26.98;57.20;100307.47;1713515;83;21000;-41
2021/06/15 09:58:55;;;;;;;4.25;2.70;;;;;;;27.04;56.27;100303.11;1721112;82;21634;-41
2021/06/15 10:01:35;;;;;;;3.33;2.17;;;;;;;27.08;57.07;100301.64;1717284;83;20984;-41
2021/06/15 10:04:21;;;;;;;4.08;2.17;;;;;;;27.12;56.31;100301.57;1719594;83;21558;-42
2021/06/15 10:06:53;;;;;;;2.62;2.25;;;;;;;27.19;55.38;100297.02;1717936;82;20952;-41
2021/06/15 10:09:27;;;;;;;4.00;2.92;;;;;;;27.28;55.18;100302.31;1721461;83;20976;-43
2021/06/15 10:11:59;;;;;;;3.70;2.90;;;;;;;27.34;55.80;100300.12;1715709;83;20956;-48
2021/06/15 10:14:27;;;;;;;2.25;2.00;;;;;;;27.38;53.45;100300.04;1721672;83;20956;-45
2021/06/15 10:16:54;;;;;;;2.30;1.87;;;;;;;27.42;52.61;100297.23;1719144;82;20971;-45
2021/06/15 10:19:23;;;;;;;2.00;1.80;;;;;;;27.45;52.40;100298.71;1721195;82;20991;-41
2021/06/15 10:21:51;;;;;;;3.12;2.45;;;;;;;27.45;50.74;100296.81;1688869;83;21013;-44
2021/06/15 10:24:24;;;;;;;3.87;2.52;;;;;;;27.48;53.39;100293.66;1687266;83;21529;-42
2021/06/15 10:26:51;;;;;;;2.15;1.95;;;;;;;27.53;51.29;100288.94;1701400;83;20973;-43
2021/06/15 10:29:18;;;;;;;2.98;2.27;;;;;;;27.54;51.26;100279.17;1701736;83;20987;-42
2021/06/15 10:31:47;;;;;;;2.58;2.08;;;;;;;27.56;53.06;100274.30;1707918;83;20995;-46
2021/06/15 10:34:14;;;;;;;4.95;3.20;;;;;;;27.58;52.28;100272.74;1719752;83;21512;-46
2021/06/15 10:36:46;;;;;;;2.98;2.08;;;;;;;27.61;54.32;100281.37;1698542;82;20975;-48
2021/06/15 10:39:39;;;;;;;2.55;2.35;;;;;;;27.69;58.14;100283.08;1717044;83;21003;-43
2021/06/15 10:42:14;;;;;;;3.02;2.05;;;;;;;27.81;59.23;100282.83;1715935;82;21015;-46
2021/06/15 10:44:45;;;;;;;2.47;1.95;;;;;;;27.90;55.83;100279.39;1683812;83;21048;-47
2021/06/15 10:47:12;;;;;;;2.10;1.82;;;;;;;27.97;53.34;100284.36;1675046;84;21023;-44
2021/06/15 10:50:00;;;;;;;2.42;1.77;;;;;;;28.04;55.04;100275.59;1690954;84;21110;-45
2021/06/15 10:52:59;;;;;;;2.30;1.98;;;;;;;28.11;54.56;100261.91;1724448;82;20969;-42
2021/06/15 10:55:50;;;;;;;4.25;1.92;;;;;;;28.19;52.37;100264.44;1615482;87;20977;-47
2021/06/15 10:58:39;;;;;;;2.20;1.85;;;;;;;28.27;53.75;100262.02;1635444;86;21015;-47
2021/06/15 11:01:14;;;;;;;3.15;2.20;;;;;;;28.35;53.13;100267.31;1609004;87;21582;-53
2021/06/15 11:03:52;;;;;;;2.50;2.00;;;;;;;28.38;52.35;100261.40;1608545;87;21649;-45
2021/06/15 11:06:20;;;;;;;3.98;2.05;;;;;;;28.43;50.75;100256.66;1616116;87;21016;-53
2021/06/15 11:09:13;;;;;;;;;;;;;;;28.47;49.63;100260.67;1635284;86;21021;-47
2021/06/15 11:11:38;;;;;;;7.95;3.20;;;;;;;28.47;50.39;100269.73;1606122;88;20153;-51
2021/06/15 11:14:07;;;;;;;4.72;2.70;;;;;;;28.34;55.91;100277.11;1667960;84;21044;-50
2021/06/15 11:16:47;;;;;;;9.43;3.37;;;;;;;27.89;60.35;100293.28;1666586;84;20987;-46
2021/06/15 11:19:19;;;;;;;4.20;3.17;;;;;;;27.36;66.22;100288.45;1667754;84;21022;-42
2021/06/15 11:22:09;;;;;;;5.83;2.85;;;;;;;26.92;73.44;100287.78;1667149;84;21522;-47
2021/06/15 11:24:50;;;;;;;5.20;3.25;;;;;;;26.60;77.86;100286.50;1664487;84;21833;-47
2021/06/15 11:27:28;;;;;;;4.08;2.77;;;;;;;26.32;81.50;100279.64;1669144;84;20976;-45
2021/06/15 11:29:59;;;;;;;5.12;3.47;;;;;;;26.14;83.83;100276.54;1663980;84;20964;-42
2021/06/15 11:32:28;;;;;;;3.90;2.85;;;;;;;26.04;83.97;100269.52;1726121;80;20979;-43
2021/06/15 11:35:03;;;;;;;3.95;3.45;;;;;;;25.98;87.30;100258.52;1747279;81;20995;-43
2021/06/15 11:37:45;;;;;;;5.10;3.37;;;;;;;25.81;88.29;100249.73;1746090;80;20961;-46
2021/06/15 11:40:30;;;;;;;7.25;5.92;;;;;;;25.72;88.68;100246.26;1748922;80;20951;-43
2021/06/15 11:43:17;;;;;;;5.15;4.28;;;;;;;25.75;91.45;100241.77;1755601;80;20936;-45